Tuesday, October 16, 2018, 6:00 AM EDT
Back to Local

KRDG, Reading Regional Airport

Location: Reading, PA, United States Lat: 40.367
Local Time: 6:00 AM EDT (10:00 GMT) Lon: -75.967
Time Zone: US/Eastern Elev: 344 ft

Show me the last for .
Show Decoded

2018-10-16 04:54 METAR KRDG 160854Z AUTO 31008KT 10SM CLR 10/06 A3011 RMK AO2 SLP201 T01000061
                 53017 =
2018-10-16 03:54 METAR KRDG 160754Z AUTO 29011KT 10SM CLR 12/06 A3009 RMK AO2 SLP193 T01170061 =
2018-10-16 02:54 METAR KRDG 160654Z AUTO 30011KT 10SM CLR 12/06 A3007 RMK AO2 SLP188 T01220056 =
2018-10-16 01:54 METAR KRDG 160554Z AUTO 31016G23KT 10SM CLR 13/07 A3006 RMK AO2 PK WND
                 30028/0542 SLP184 60003 T01280067 10189 20128 51031 =
2018-10-16 00:54 METAR KRDG 160454Z AUTO 31015G20KT 10SM FEW034 SCT075 OVC090 14/11 A3003 RMK AO2
                 RAB02E17 SLP173 P0000 T01440106 402000111 =
2018-10-15 23:54 METAR KRDG 160354Z AUTO 29013KT 10SM OVC060 16/11 A3001 RMK AO2 RAE21 SLP167
                 P0000 T01560111 =
2018-10-15 22:54 METAR KRDG 160254Z 30013KT 7SM -RA FEW020 OVC041 17/14 A2997 RMK AO2 RAB0159
                 SLP152 P0000 60003 T01670144 53027 =
2018-10-15 21:54 METAR KRDG 160154Z 28008KT 10SM BKN014 OVC043 18/17 A2994 RMK AO2 RAB08E31
                 SLP142 P0003 T01780167 =
2018-10-15 21:05 METAR KRDG 160105Z 29008KT 10SM BKN014 OVC043 19/18 A2991 RMK AO2 T01890178 =
2018-10-15 20:54 METAR KRDG 160054Z 29008KT 10SM SCT014 19/18 A2991 RMK AO2 SLP132 T01890183 =
2018-10-15 19:54 METAR KRDG 152354Z 21009KT 10SM SCT014 19/18 A2989 RMK AO2 SLP125 60005
                 T01890178 10200 20178 57007 =
2018-10-15 18:54 METAR KRDG 152254Z 20007KT 7SM BKN014 OVC049 18/18 A2989 RMK AO2 RAB2157E09
                 SLP127 P0000 T01830178 =
2018-10-15 17:54 METAR KRDG 152154Z 20006KT 7SM BKN014 OVC044 18/18 A2990 RMK AO2 RAB01E20 SLP130
                 P0000 T01830178 =
2018-10-15 16:54 METAR KRDG 152054Z 19008KT 5SM BR BKN011 BKN095 OVC110 18/18 A2991 RMK AO2 RAE54
                 SLP132 P0001 60005 T01830178 58019 =
2018-10-15 15:54 METAR KRDG 151954Z 20006KT 5SM -RA BR BKN011 BKN095 OVC110 18/17 A2992 RMK AO2
                 SLP137 P0004 T01780172 =
2018-10-15 14:54 METAR KRDG 151854Z 22009KT 6SM -RA BR BKN014 BKN070 OVC100 18/17 A2996 RMK AO2
                 RAB08 SLP148 P0000 T01780167 =
2018-10-15 14:36 METAR KRDG 151836Z 21010KT 7SM -RA BKN014 BKN040 18/17 A2996 RMK AO2 RAB08 P0000
                 T01830167 =
2018-10-15 13:54 METAR KRDG 151754Z 20010KT 10SM OVC014 18/17 A2997 RMK AO2 RAB15E24 SLP151 P0000
                 60000 T01830167 10183 20133 56016 =
2018-10-15 13:50 METAR KRDG 151750Z 20010KT 10SM OVC014 18/17 A2997 RMK AO2 RAB15E24 P0000 =
2018-10-15 12:54 METAR KRDG 151654Z 20007KT 7SM OVC009 18/16 A2999 RMK AO2 SLP161 T01780161 =
2018-10-15 11:54 METAR KRDG 151554Z 20008KT 7SM OVC009 17/16 A3001 RMK AO2 SLP167 T01720161 =
2018-10-15 10:54 METAR KRDG 151454Z 19005KT 7SM OVC008 16/15 A3004 RMK AO2 SLP178 T01610150 58007
                 $ =
2018-10-15 10:08 METAR KRDG 151408Z 21009KT 5SM BR OVC009 16/15 A3006 RMK AO2 T01560150 $ =
2018-10-15 09:54 METAR KRDG 151354Z 21008KT 7SM OVC010 16/15 A3006 RMK AO2 SLP185 T01560150 $ =
2018-10-15 09:39 METAR KRDG 151339Z 19006KT 7SM OVC009 15/15 A3006 RMK AO2 T01500150 $ =
2018-10-15 08:54 METAR KRDG 151254Z VRB03KT 7SM OVC011 14/14 A3006 RMK AO2 SLP185 T01390139 $ =
2018-10-15 08:01 METAR KRDG 151201Z COR 00000KT 6SM OVC012 13/13 A3007 RMK AO2 T01330133 $ =
2018-10-15 07:54 METAR KRDG 151154Z 00000KT 2 1/2SM BR BKN015 OVC025 13/13 A3008 RMK AO2 RAB07E28
                 SLP190 P0001 60003 70003 T01330133 10133 20111 56009 $ =
2018-10-15 06:59 METAR KRDG 151059Z 15005KT 2 1/2SM BR BKN015 OVC025 13/13 A3008 RMK AO2
                 T01280128 $ =
2018-10-15 06:54 METAR KRDG 151054Z 15003KT 10SM OVC007 13/13 A3009 RMK AO2 SLP193 T01280128 $ =

Support USWX by starting your Amazon purchase here.